Time;durP1;ratioP1;P1;durP2;ratioP2;P2;SDS_P1;SDS_P2;PMS_P1;PMS_P2;Temp;Humidity;BMP_temperature;BMP_pressure;BME280_temperature;BME280_humidity;BME280_pressure;Samples;Min_cycle;Max_cycle;Signal;HPM_P1;HPM_P2
2023/11/30 00:00:13;;;;;;;17.60;5.30;;;;;;;-0.21;97.16;99773.16;6171405;28;20110;-76
2023/11/30 00:03:16;;;;;;;9.18;5.25;;;;;;;-0.03;95.77;99749.66;6173079;28;20062;-76
2023/11/30 00:06:22;;;;;;;8.07;4.32;;;;;;;-0.29;96.46;99755.38;6151535;28;20271;-73
2023/11/30 00:09:23;;;;;;;13.10;6.00;;;;;;;-0.21;97.00;99761.19;6180915;28;20059;-77
2023/11/30 00:12:23;;;;;;;8.73;4.05;;;;;;;-0.33;97.91;99761.44;6165071;28;20106;-76
2023/11/30 00:15:24;;;;;;;9.30;3.65;;;;;;;-0.47;97.99;99756.59;6172383;28;20053;-75
2023/11/30 00:18:25;;;;;;;10.38;5.05;;;;;;;-0.34;98.16;99769.16;6173696;28;20054;-75
2023/11/30 00:21:28;;;;;;;13.73;6.40;;;;;;;-0.30;97.93;99770.78;6172077;28;20050;-76
2023/11/30 00:24:29;;;;;;;11.90;6.50;;;;;;;-0.27;97.39;99763.03;6173299;28;20055;-76
2023/11/30 00:27:30;;;;;;;7.57;5.15;;;;;;;-0.32;97.52;99770.81;6159977;28;20522;-76
2023/11/30 00:30:30;;;;;;;8.52;5.25;;;;;;;-0.32;97.73;99773.38;6172270;28;20066;-73
2023/11/30 00:33:36;;;;;;;8.48;5.47;;;;;;;-0.29;97.07;99775.03;6171991;28;20054;-76
2023/11/30 00:36:37;;;;;;;10.50;5.95;;;;;;;-0.38;98.24;99777.81;6153854;28;20051;-76
2023/11/30 00:39:38;;;;;;;10.77;5.65;;;;;;;-0.41;98.71;99776.97;6174798;28;20059;-76
2023/11/30 00:42:42;;;;;;;8.02;5.15;;;;;;;-0.31;98.12;99787.03;6149418;28;20255;-73
2023/11/30 00:45:43;;;;;;;15.02;6.68;;;;;;;-0.07;97.33;99793.38;6148081;28;20087;-76
2023/11/30 00:48:45;;;;;;;10.40;5.28;;;;;;;-0.05;96.44;99796.75;6148574;28;20569;-74
2023/11/30 00:51:46;;;;;;;13.75;6.95;;;;;;;-0.04;96.49;99795.91;6149418;28;20070;-76
2023/11/30 00:54:47;;;;;;;11.45;6.07;;;;;;;-0.23;96.67;99787.72;6148863;28;20494;-73
2023/11/30 00:57:49;;;;;;;13.45;5.35;;;;;;;-0.23;97.32;99788.59;6163635;28;20520;-76
2023/11/30 01:00:50;;;;;;;15.65;5.93;;;;;;;-0.36;97.97;99794.81;6147467;28;20055;-76
2023/11/30 01:03:51;;;;;;;14.80;6.75;;;;;;;-0.34;98.39;99795.66;6179069;28;20050;-76
2023/11/30 01:06:52;;;;;;;8.02;5.32;;;;;;;-0.34;98.34;99798.22;6187428;28;20050;-77
2023/11/30 01:09:53;;;;;;;7.78;4.90;;;;;;;-0.45;98.31;99793.31;6151946;28;20054;-76
2023/11/30 01:12:53;;;;;;;17.75;7.47;;;;;;;-0.32;98.93;99804.16;6148784;28;20055;-73
2023/11/30 01:15:55;;;;;;;9.18;4.80;;;;;;;-0.45;98.51;99811.25;6148546;28;20525;-74
2023/11/30 01:18:55;;;;;;;7.82;5.05;;;;;;;-0.43;99.38;99808.66;6170155;28;20182;-76
2023/11/30 01:21:56;;;;;;;8.85;5.55;;;;;;;-0.33;99.92;99817.00;6171348;28;20055;-76
2023/11/30 01:24:57;;;;;;;9.02;5.70;;;;;;;-0.37;99.23;99816.22;6172857;28;20458;-75
2023/11/30 01:27:58;;;;;;;13.50;5.43;;;;;;;-0.41;99.73;99806.91;6172687;28;20055;-75
2023/11/30 01:30:59;;;;;;;11.35;6.35;;;;;;;-0.36;99.61;99804.25;6171282;28;20047;-76
2023/11/30 01:34:00;;;;;;;14.52;7.13;;;;;;;-0.33;99.15;99805.03;6162637;28;20055;-73
2023/11/30 01:37:01;;;;;;;12.75;6.88;;;;;;;-0.46;99.30;99791.59;6169876;28;20051;-73
2023/11/30 01:40:02;;;;;;;12.90;6.43;;;;;;;-0.45;99.78;99787.34;6171472;28;20099;-74
2023/11/30 01:43:06;;;;;;;14.10;7.20;;;;;;;-0.56;100.00;99779.84;6172703;28;20051;-73
2023/11/30 01:46:07;;;;;;;14.93;6.95;;;;;;;-0.42;100.00;99787.25;6171942;28;20656;-74
2023/11/30 01:49:08;;;;;;;10.15;5.72;;;;;;;-0.54;100.00;99774.69;6170337;28;20054;-76
2023/11/30 01:52:09;;;;;;;14.77;6.95;;;;;;;-0.62;100.00;99775.72;6172392;28;20500;-73
2023/11/30 01:55:12;;;;;;;14.90;7.22;;;;;;;-0.47;100.00;99776.28;6172016;28;20054;-76
2023/11/30 01:58:14;;;;;;;9.70;5.45;;;;;;;-0.53;100.00;99769.53;6176458;28;20097;-73
2023/11/30 02:01:15;;;;;;;10.68;5.75;;;;;;;-0.57;100.00;99774.78;6175523;28;20047;-73
2023/11/30 02:04:19;;;;;;;15.17;7.93;;;;;;;-0.49;100.00;99770.34;6175134;28;20051;-73
2023/11/30 02:07:20;;;;;;;12.77;7.57;;;;;;;-0.45;99.82;99770.22;6175887;28;20060;-76
2023/11/30 02:10:23;;;;;;;13.45;7.50;;;;;;;-0.42;100.00;99774.44;6176495;28;20047;-76
2023/11/30 02:13:25;;;;;;;17.67;7.50;;;;;;;-0.52;100.00;99771.22;6175916;28;20054;-76
2023/11/30 02:16:26;;;;;;;21.42;8.27;;;;;;;-0.67;100.00;99774.09;6176455;28;20475;-76
2023/11/30 02:19:28;;;;;;;13.35;7.43;;;;;;;-0.57;100.00;99767.09;6176282;28;20457;-76
2023/11/30 02:22:29;;;;;;;14.88;8.13;;;;;;;-0.65;100.00;99768.06;6175922;28;20050;-76
2023/11/30 02:25:30;;;;;;;15.82;9.23;;;;;;;-0.55;100.00;99775.59;6191075;28;20146;-76
2023/11/30 02:28:31;;;;;;;11.18;5.80;;;;;;;-0.67;100.00;99769.81;6176165;28;20062;-75
2023/11/30 02:31:32;;;;;;;16.88;7.72;;;;;;;-0.70;100.00;99769.03;6174936;28;20046;-76
2023/11/30 02:34:33;;;;;;;17.17;7.88;;;;;;;-0.70;100.00;99777.56;6190699;28;20062;-76
2023/11/30 02:37:34;;;;;;;14.40;7.07;;;;;;;-0.74;100.00;99778.50;6167981;28;20051;-77
2023/11/30 02:40:35;;;;;;;14.82;8.07;;;;;;;-0.67;100.00;99772.38;6151510;28;20106;-76
2023/11/30 02:43:36;;;;;;;32.83;8.27;;;;;;;-0.69;100.00;99771.56;6151694;28;20051;-74
2023/11/30 02:46:37;;;;;;;14.70;6.82;;;;;;;-0.75;100.00;99773.41;6151725;28;20136;-74
2023/11/30 02:49:38;;;;;;;13.88;7.32;;;;;;;-0.80;100.00;99768.38;6151225;28;20102;-74
2023/11/30 02:52:39;;;;;;;15.82;8.88;;;;;;;-0.76;100.00;99769.13;6152053;28;20058;-73
2023/11/30 02:55:40;;;;;;;19.20;9.30;;;;;;;-0.71;100.00;99762.22;6151208;28;20087;-73
2023/11/30 02:58:40;;;;;;;20.20;9.70;;;;;;;-0.60;100.00;99762.84;6151438;28;20207;-76
2023/11/30 03:01:46;;;;;;;16.95;8.18;;;;;;;-0.69;100.00;99758.75;6151004;28;20047;-76
2023/11/30 03:04:49;;;;;;;15.82;8.23;;;;;;;-0.78;100.00;99761.50;6182245;28;20058;-75
2023/11/30 03:07:51;;;;;;;23.25;9.40;;;;;;;-0.68;100.00;99769.84;6150051;28;20146;-76
2023/11/30 03:10:54;;;;;;;10.50;6.10;;;;;;;-0.74;100.00;99778.50;6150893;29;20414;-74
2023/11/30 03:13:55;;;;;;;17.65;9.65;;;;;;;-0.70;100.00;99782.69;6151004;28;20051;-76
2023/11/30 03:16:57;;;;;;;16.55;8.45;;;;;;;-0.57;100.00;99785.03;6150071;28;20055;-76
2023/11/30 03:19:58;;;;;;;16.02;7.72;;;;;;;-0.49;100.00;99778.03;6150832;28;20048;-73
2023/11/30 03:22:58;;;;;;;19.42;7.38;;;;;;;-0.63;100.00;99773.16;6157202;28;20054;-74
2023/11/30 03:25:59;;;;;;;22.20;8.88;;;;;;;-0.66;100.00;99766.38;6171411;28;20462;-74
2023/11/30 03:29:03;;;;;;;14.07;6.65;;;;;;;-0.75;100.00;99763.16;6150600;28;20062;-76
2023/11/30 03:32:05;;;;;;;18.48;8.57;;;;;;;-0.58;100.00;99766.22;6150449;28;20384;-76
2023/11/30 03:35:06;;;;;;;15.60;8.03;;;;;;;-0.60;100.00;99755.16;6160547;28;20057;-76
2023/11/30 03:38:07;;;;;;;16.92;7.82;;;;;;;-0.60;100.00;99757.72;6173418;28;20046;-75
2023/11/30 03:41:08;;;;;;;19.40;9.05;;;;;;;-0.63;100.00;99752.66;6165189;28;20051;-75
2023/11/30 03:44:09;;;;;;;19.95;8.80;;;;;;;-0.67;100.00;99751.88;6165637;28;20384;-76
2023/11/30 03:47:10;;;;;;;13.27;7.45;;;;;;;-0.72;100.00;99750.28;6152309;28;20051;-73
2023/11/30 03:50:11;;;;;;;12.20;6.65;;;;;;;-0.54;100.00;99754.19;6162678;28;20129;-74
2023/11/30 03:53:12;;;;;;;16.08;8.07;;;;;;;-0.62;100.00;99742.38;6151178;28;20055;-73
2023/11/30 03:56:13;;;;;;;18.83;8.77;;;;;;;-0.77;100.00;99740.13;6150900;28;21064;-73
2023/11/30 03:59:13;;;;;;;12.95;6.43;;;;;;;-0.74;100.00;99731.53;6182447;28;20137;-76
2023/11/30 04:02:14;;;;;;;21.35;9.02;;;;;;;-0.66;100.00;99732.22;6150899;28;20046;-76
2023/11/30 04:05:19;;;;;;;17.05;7.55;;;;;;;-0.69;100.00;99725.44;6150684;28;20545;-73
2023/11/30 04:08:20;;;;;;;9.60;5.43;;;;;;;-0.74;100.00;99717.00;6182192;28;20083;-73
2023/11/30 04:11:21;;;;;;;14.85;7.53;;;;;;;-0.68;100.00;99716.03;6161050;28;20049;-74
2023/11/30 04:14:22;;;;;;;14.13;7.93;;;;;;;-0.65;100.00;99708.28;6174630;28;20054;-73
2023/11/30 04:17:23;;;;;;;15.63;7.30;;;;;;;-0.74;100.00;99713.59;6174677;28;20050;-76
2023/11/30 04:20:24;;;;;;;13.63;7.18;;;;;;;-0.70;100.00;99703.25;6173000;28;20258;-74
2023/11/30 04:23:25;;;;;;;14.57;7.45;;;;;;;-0.72;100.00;99699.88;6174450;28;20055;-73
2023/11/30 04:26:26;;;;;;;18.00;7.47;;;;;;;-0.69;100.00;99701.53;6166732;28;20126;-74
2023/11/30 04:29:29;;;;;;;14.75;6.93;;;;;;;-0.74;100.00;99704.19;6198216;28;20101;-76
2023/11/30 04:32:30;;;;;;;11.02;6.90;;;;;;;-0.80;100.00;99712.00;6158828;28;20082;-73
2023/11/30 04:35:31;;;;;;;17.15;8.70;;;;;;;-0.97;100.00;99711.47;6150146;28;20063;-73
2023/11/30 04:38:34;;;;;;;10.25;5.53;;;;;;;-0.87;100.00;99703.59;6168549;28;20189;-76
2023/11/30 04:41:35;;;;;;;12.60;7.35;;;;;;;-0.78;100.00;99699.16;6160085;28;20051;-76
2023/11/30 04:44:36;;;;;;;12.77;7.30;;;;;;;-0.79;99.10;99700.03;6166489;28;20091;-75
2023/11/30 04:47:37;;;;;;;12.18;7.10;;;;;;;-0.84;99.21;99703.53;6173999;28;20059;-74
2023/11/30 04:50:38;;;;;;;9.55;5.93;;;;;;;-0.74;98.97;99711.88;6189020;28;20054;-76
2023/11/30 04:53:39;;;;;;;15.13;7.68;;;;;;;-0.66;98.73;99714.28;6169878;28;20047;-73
2023/11/30 04:56:40;;;;;;;9.13;5.60;;;;;;;-0.76;98.34;99705.09;6168184;28;20109;-73
2023/11/30 04:59:41;;;;;;;21.52;8.13;;;;;;;-0.76;97.53;99692.28;6197949;28;20098;-73
2023/11/30 05:02:53;;;;;;;12.13;6.63;;;;;;;-0.72;98.15;99675.97;6194922;28;20061;-74
2023/11/30 05:05:54;;;;;;;16.58;8.57;;;;;;;-0.70;97.95;99659.72;6189448;28;20054;-76
2023/11/30 05:08:57;;;;;;;12.32;6.60;;;;;;;-0.65;96.45;99665.56;6172606;28;20419;-74
2023/11/30 05:11:58;;;;;;;10.93;6.22;;;;;;;-0.74;96.71;99658.09;6175014;28;20126;-76
2023/11/30 05:14:59;;;;;;;17.92;8.05;;;;;;;-0.75;96.41;99661.50;6196565;28;20069;-76
2023/11/30 05:17:59;;;;;;;12.07;6.40;;;;;;;-0.75;97.03;99674.31;6180939;28;20057;-76
2023/11/30 05:21:01;;;;;;;16.90;8.75;;;;;;;-0.69;96.90;99679.31;6195997;28;20081;-73
2023/11/30 05:24:02;;;;;;;13.50;7.60;;;;;;;-0.80;96.48;99671.03;6196769;28;20490;-75
2023/11/30 05:27:03;;;;;;;15.07;6.85;;;;;;;-0.66;96.59;99665.59;6194958;28;20145;-76
2023/11/30 05:30:05;;;;;;;12.87;6.90;;;;;;;-0.70;95.99;99657.16;6177395;28;20043;-76
2023/11/30 05:33:06;;;;;;;16.03;7.80;;;;;;;-0.56;94.81;99638.88;6192346;28;20280;-76
2023/11/30 05:36:08;;;;;;;14.88;7.75;;;;;;;-0.43;94.61;99639.47;6201363;28;20287;-76
2023/11/30 05:39:09;;;;;;;16.33;8.63;;;;;;;-0.33;93.71;99655.47;6201393;28;20085;-74
2023/11/30 05:42:10;;;;;;;12.80;7.25;;;;;;;-0.52;93.73;99632.81;6199802;28;20042;-74
2023/11/30 05:45:11;;;;;;;13.85;6.80;;;;;;;-0.46;93.49;99624.16;6201242;28;20516;-74
2023/11/30 05:48:12;;;;;;;12.45;6.53;;;;;;;-0.66;93.28;99620.34;6200405;28;20093;-77
2023/11/30 05:51:13;;;;;;;14.60;7.10;;;;;;;-0.57;93.54;99633.81;6200373;28;20625;-76
2023/11/30 05:54:15;;;;;;;13.48;7.45;;;;;;;-0.42;92.37;99620.63;6200949;28;20085;-76
2023/11/30 05:57:16;;;;;;;16.02;7.35;;;;;;;-0.54;92.37;99632.00;6199303;28;20077;-74
2023/11/30 06:00:17;;;;;;;17.45;7.60;;;;;;;-0.33;92.87;99630.69;6199624;28;20042;-74
2023/11/30 06:03:18;;;;;;;23.70;9.02;;;;;;;-0.41;92.67;99633.44;6200404;28;20054;-74
2023/11/30 06:06:19;;;;;;;18.30;7.70;;;;;;;-0.36;93.10;99624.78;6199567;28;20054;-74
2023/11/30 06:09:20;;;;;;;12.23;7.30;;;;;;;-0.25;92.25;99628.81;6200294;28;20408;-73
2023/11/30 06:12:21;;;;;;;11.18;6.63;;;;;;;-0.26;92.74;99613.44;6200186;28;20162;-76
2023/11/30 06:15:22;;;;;;;25.13;8.48;;;;;;;-0.27;93.05;99604.91;6199139;28;20104;-76
2023/11/30 06:18:23;;;;;;;16.23;8.30;;;;;;;-0.56;93.23;99600.44;6199199;28;20062;-74
2023/11/30 06:21:24;;;;;;;14.68;8.40;;;;;;;-0.36;93.39;99611.97;6199882;28;20408;-74
2023/11/30 06:24:29;;;;;;;14.23;7.63;;;;;;;-0.38;92.95;99617.13;6198718;28;20052;-74
2023/11/30 06:27:30;;;;;;;18.27;9.70;;;;;;;-0.31;92.59;99615.25;6200042;28;20054;-76
2023/11/30 06:30:31;;;;;;;24.33;10.10;;;;;;;-0.18;92.99;99601.28;6200123;28;20488;-76
2023/11/30 06:33:32;;;;;;;36.88;16.77;;;;;;;-0.31;93.24;99613.56;6198635;28;20054;-76
2023/11/30 06:36:33;;;;;;;25.15;13.75;;;;;;;-0.27;92.56;99611.75;6199637;28;20497;-76
2023/11/30 06:39:40;;;;;;;24.95;13.95;;;;;;;-0.24;93.08;99609.97;6199804;28;20086;-76
2023/11/30 06:42:40;;;;;;;21.75;9.57;;;;;;;-0.22;92.97;99610.75;6199234;28;20504;-76
2023/11/30 06:45:41;;;;;;;28.15;12.77;;;;;;;-0.27;92.84;99596.34;6198254;28;20054;-76
2023/11/30 06:48:43;;;;;;;29.90;19.48;;;;;;;-0.11;92.33;99600.25;6198012;28;20059;-74
2023/11/30 06:51:44;;;;;;;21.58;13.90;;;;;;;-0.08;92.48;99610.44;6199509;28;20134;-73
2023/11/30 06:54:45;;;;;;;14.75;8.90;;;;;;;-0.08;91.77;99600.19;6199242;28;20051;-73
2023/11/30 06:57:48;;;;;;;13.60;8.43;;;;;;;-0.01;91.17;99586.31;6198039;28;20145;-74
2023/11/30 07:00:49;;;;;;;15.55;8.60;;;;;;;-0.07;91.70;99580.50;6197844;28;20054;-73
2023/11/30 07:03:50;;;;;;;17.05;9.05;;;;;;;-0.20;90.56;99564.56;6196742;28;20077;-74
2023/11/30 07:06:51;;;;;;;19.88;8.85;;;;;;;-0.10;90.36;99560.06;6199158;28;20054;-73
2023/11/30 07:09:52;;;;;;;20.70;9.48;;;;;;;0.06;90.25;99560.50;6197379;28;20046;-74
2023/11/30 07:12:53;;;;;;;16.77;8.55;;;;;;;0.03;89.87;99552.91;6198920;28;20054;-73
2023/11/30 07:15:54;;;;;;;21.63;11.60;;;;;;;0.04;90.45;99564.81;6197697;28;20133;-77
2023/11/30 07:18:55;;;;;;;27.75;11.85;;;;;;;0.09;90.76;99571.53;6197772;28;20061;-77
2023/11/30 07:21:56;;;;;;;22.73;12.65;;;;;;;0.22;90.52;99572.03;6197458;28;20050;-73
2023/11/30 07:24:58;;;;;;;14.07;8.07;;;;;;;0.09;90.20;99570.69;6198663;28;20675;-73
2023/11/30 07:28:00;;;;;;;19.27;9.05;;;;;;;0.17;89.89;99551.66;6198560;28;20113;-74
2023/11/30 07:31:01;;;;;;;14.18;8.60;;;;;;;0.08;90.07;99574.13;6198656;28;20442;-76
2023/11/30 07:34:02;;;;;;;40.45;21.55;;;;;;;0.16;90.45;99567.06;6197200;28;20429;-74
2023/11/30 07:37:04;;;;;;;31.35;16.33;;;;;;;0.32;89.56;99573.47;6197142;28;20061;-73
2023/11/30 07:40:06;;;;;;;21.60;10.82;;;;;;;0.29;89.02;99582.97;6196948;28;20409;-73
2023/11/30 07:43:08;;;;;;;14.68;8.60;;;;;;;0.44;89.26;99581.75;6196913;28;20087;-73
2023/11/30 07:46:09;;;;;;;18.88;8.63;;;;;;;0.26;88.73;99559.97;6198436;28;20046;-74
2023/11/30 07:49:11;;;;;;;15.18;7.93;;;;;;;0.41;88.87;99567.25;6196782;28;20065;-73
2023/11/30 07:52:13;;;;;;;16.20;7.32;;;;;;;0.51;87.76;99563.56;6197925;28;20404;-76
2023/11/30 07:55:14;;;;;;;14.07;7.45;;;;;;;0.44;87.47;99543.25;6197319;28;20054;-75
2023/11/30 07:58:15;;;;;;;21.05;7.90;;;;;;;0.50;87.01;99543.91;6196714;28;20057;-73
2023/11/30 08:01:16;;;;;;;27.73;9.70;;;;;;;0.44;86.63;99550.94;6196539;28;20046;-74
2023/11/30 08:04:17;;;;;;;18.30;9.52;;;;;;;0.43;86.42;99555.22;6196493;28;20066;-73
2023/11/30 08:07:18;;;;;;;23.15;10.52;;;;;;;0.54;86.02;99542.94;6196648;28;20418;-73
2023/11/30 08:10:19;;;;;;;25.65;10.68;;;;;;;0.62;84.97;99526.47;6196451;28;20652;-76
2023/11/30 08:13:21;;;;;;;31.52;13.65;;;;;;;0.63;85.76;99520.47;6177046;28;20134;-76
2023/11/30 08:16:23;;;;;;;23.55;12.20;;;;;;;0.63;85.21;99536.69;6173323;28;20413;-75
2023/11/30 08:19:26;;;;;;;11.75;6.65;;;;;;;0.80;84.72;99538.78;6173744;28;20058;-75
2023/11/30 08:22:31;;;;;;;15.40;7.60;;;;;;;0.89;84.57;99553.94;6173089;28;20453;-75
2023/11/30 08:25:32;;;;;;;14.02;6.88;;;;;;;0.94;84.17;99552.06;6171972;28;20485;-75
2023/11/30 08:28:33;;;;;;;13.18;6.55;;;;;;;1.07;83.75;99562.84;6173246;28;20089;-73
2023/11/30 08:31:36;;;;;;;25.60;8.65;;;;;;;1.08;83.38;99546.50;6172279;28;20049;-73
2023/11/30 08:34:37;;;;;;;21.75;8.60;;;;;;;1.14;83.41;99533.47;6173002;28;20137;-73
2023/11/30 08:37:37;;;;;;;20.95;7.68;;;;;;;1.13;82.63;99521.53;6171883;28;20057;-73
2023/11/30 08:40:38;;;;;;;19.17;8.75;;;;;;;1.09;82.84;99512.25;6172003;28;20486;-73
2023/11/30 08:43:39;;;;;;;20.33;10.15;;;;;;;1.19;82.77;99505.06;6171735;28;20054;-73
2023/11/30 08:46:42;;;;;;;20.02;8.93;;;;;;;1.08;83.21;99504.56;6172950;28;20545;-73
2023/11/30 08:49:43;;;;;;;17.63;6.90;;;;;;;0.91;83.62;99513.63;6171481;28;20196;-76
2023/11/30 08:52:44;;;;;;;13.45;6.72;;;;;;;1.04;82.74;99518.41;6172844;28;20050;-76
2023/11/30 08:55:45;;;;;;;11.05;6.10;;;;;;;1.08;82.20;99519.97;6171633;28;20138;-75
2023/11/30 08:58:48;;;;;;;12.02;5.90;;;;;;;1.10;81.71;99519.03;6171570;28;20050;-73
2023/11/30 09:01:49;;;;;;;15.13;7.75;;;;;;;1.03;81.79;99516.69;6171523;28;20046;-73
2023/11/30 09:04:53;;;;;;;13.15;6.50;;;;;;;1.18;81.54;99503.41;6172814;28;20421;-76
2023/11/30 09:07:55;;;;;;;17.02;8.02;;;;;;;1.01;82.22;99519.34;6176562;28;20482;-75
2023/11/30 09:10:56;;;;;;;11.45;4.90;;;;;;;0.93;81.89;99523.88;6176326;28;20110;-73
2023/11/30 09:13:57;;;;;;;15.88;6.95;;;;;;;1.00;81.34;99517.66;6176324;28;20125;-75
2023/11/30 09:17:01;;;;;;;11.40;6.65;;;;;;;0.98;81.46;99497.13;6192450;28;20070;-72
2023/11/30 09:20:05;;;;;;;10.35;6.00;;;;;;;1.11;81.81;99495.03;6176254;28;20059;-72
2023/11/30 09:23:08;;;;;;;11.23;6.18;;;;;;;1.16;81.35;99476.91;6177282;28;20406;-75
2023/11/30 09:26:12;;;;;;;13.02;6.20;;;;;;;1.06;82.26;99462.66;6176423;28;20097;-75
2023/11/30 09:29:13;;;;;;;14.35;5.40;;;;;;;1.07;81.69;99462.63;6177713;28;20051;-72
2023/11/30 09:32:15;;;;;;;8.82;5.47;;;;;;;0.79;81.75;99457.50;6177314;28;20105;-72
2023/11/30 09:35:16;;;;;;;15.48;7.40;;;;;;;0.99;81.05;99454.31;6175712;28;20050;-73
2023/11/30 09:38:17;;;;;;;13.23;6.65;;;;;;;1.04;81.35;99446.47;6175073;28;20050;-75
2023/11/30 09:41:22;;;;;;;15.80;6.55;;;;;;;1.04;81.15;99439.59;6175472;28;20055;-76
2023/11/30 09:44:22;;;;;;;14.18;5.68;;;;;;;1.24;81.13;99444.09;6176967;28;20070;-73
2023/11/30 09:47:23;;;;;;;12.05;5.78;;;;;;;1.12;81.17;99441.91;6175437;28;20513;-72
2023/11/30 09:50:24;;;;;;;10.70;5.38;;;;;;;1.14;80.22;99446.09;6191626;28;20074;-75
2023/11/30 09:53:26;;;;;;;10.88;5.47;;;;;;;1.33;80.16;99442.94;6175457;28;20081;-76
2023/11/30 09:56:29;;;;;;;9.15;4.75;;;;;;;1.46;79.99;99430.50;6176670;28;20153;-75
2023/11/30 09:59:32;;;;;;;13.63;4.97;;;;;;;1.30;79.66;99433.59;6176612;28;20050;-72
2023/11/30 10:02:33;;;;;;;8.07;4.45;;;;;;;1.37;79.07;99436.81;6176414;28;20051;-72
2023/11/30 10:05:33;;;;;;;10.50;5.32;;;;;;;1.46;78.62;99435.66;6176610;28;20062;-76
2023/11/30 10:08:37;;;;;;;8.10;5.20;;;;;;;1.43;79.30;99443.50;6174958;28;20058;-73
2023/11/30 10:11:44;;;;;;;9.30;5.47;;;;;;;1.60;78.64;99443.75;6174932;28;20047;-73
2023/11/30 10:14:58;;;;;;;13.68;5.15;;;;;;;1.56;78.60;99437.84;6176024;28;20050;-73
2023/11/30 10:17:59;;;;;;;9.75;5.53;;;;;;;1.41;77.93;99438.38;6174268;28;20494;-72
2023/11/30 10:21:03;;;;;;;9.35;4.82;;;;;;;1.40;77.73;99431.56;6174718;28;20449;-75
2023/11/30 10:24:04;;;;;;;16.17;6.15;;;;;;;1.59;78.07;99444.66;6174961;28;20089;-75
2023/11/30 10:27:10;;;;;;;10.70;5.18;;;;;;;1.55;78.05;99438.75;6175992;28;20050;-75
2023/11/30 10:30:15;;;;;;;8.32;4.93;;;;;;;1.55;79.03;99443.06;6174966;28;20505;-73
2023/11/30 10:33:21;;;;;;;11.05;6.00;;;;;;;1.70;79.49;99454.56;6174589;28;20532;-73
2023/11/30 10:36:26;;;;;;;9.30;5.30;;;;;;;1.50;79.14;99450.09;6174519;28;20046;-73
2023/11/30 10:39:35;;;;;;;11.82;5.72;;;;;;;1.62;80.68;99441.97;6175688;28;20061;-73
2023/11/30 10:42:39;;;;;;;10.40;5.28;;;;;;;1.25;82.57;99438.03;6174102;28;20078;-72
2023/11/30 10:45:40;;;;;;;9.50;4.85;;;;;;;1.46;83.53;99430.50;6175204;28;20055;-73
2023/11/30 10:48:41;;;;;;;17.67;12.03;;;;;;;1.34;84.81;99424.91;6175053;28;20062;-72
2023/11/30 10:51:43;;;;;;;14.60;7.97;;;;;;;1.46;86.10;99435.66;6175506;28;20047;-75
2023/11/30 10:55:09;;;;;;;10.05;6.13;;;;;;;1.46;87.86;99425.38;6189877;28;20102;-73
2023/11/30 10:58:11;;;;;;;21.10;10.98;;;;;;;1.18;89.54;99411.72;6175447;28;20081;-75
2023/11/30 11:01:13;;;;;;;25.98;13.68;;;;;;;1.38;90.51;99410.19;6173606;28;20532;-73
2023/11/30 11:04:15;;;;;;;18.80;10.80;;;;;;;1.40;91.52;99396.44;6173602;28;20047;-72
2023/11/30 11:07:17;;;;;;;15.75;8.93;;;;;;;1.53;92.14;99398.56;6173480;28;20054;-73
2023/11/30 11:10:29;;;;;;;14.65;7.88;;;;;;;1.52;92.82;99377.16;6173791;28;20137;-73
2023/11/30 11:13:34;;;;;;;14.88;7.18;;;;;;;1.50;93.08;99378.09;6173501;28;20418;-76
2023/11/30 11:16:37;;;;;;;14.52;7.68;;;;;;;1.56;92.84;99372.75;6174580;28;20166;-76
2023/11/30 11:19:42;;;;;;;14.80;7.40;;;;;;;1.52;93.30;99348.03;6173469;28;20054;-73
2023/11/30 11:22:43;;;;;;;14.02;6.65;;;;;;;1.50;93.14;99337.78;6174593;28;20602;-75
2023/11/30 11:25:46;;;;;;;21.20;8.90;;;;;;;1.53;93.39;99334.28;6173422;28;20066;-75
2023/11/30 11:28:47;;;;;;;12.02;7.05;;;;;;;1.57;93.14;99333.28;6172609;28;20051;-73
2023/11/30 11:31:48;;;;;;;12.57;7.38;;;;;;;1.52;93.17;99318.00;6173222;28;20058;-75
2023/11/30 11:34:49;;;;;;;12.93;6.57;;;;;;;1.49;94.10;99317.28;6174218;28;20386;-74
2023/11/30 11:37:50;;;;;;;14.50;7.35;;;;;;;1.41;94.83;99304.72;6174402;28;20054;-73
2023/11/30 11:40:53;;;;;;;14.63;7.63;;;;;;;1.45;94.68;99298.56;6173682;28;20051;-76
2023/11/30 11:43:54;;;;;;;17.02;7.38;;;;;;;1.38;94.66;99297.09;6175082;28;20062;-75
2023/11/30 11:46:57;;;;;;;14.75;8.13;;;;;;;1.49;94.73;99294.16;6173194;28;20054;-76
2023/11/30 11:50:07;;;;;;;10.73;6.28;;;;;;;1.37;95.56;99283.41;6318434;27;20366;-75
2023/11/30 11:53:08;;;;;;;12.13;6.43;;;;;;;1.30;95.20;99278.56;6317146;28;20048;-72
2023/11/30 11:56:12;;;;;;;19.15;7.90;;;;;;;1.30;96.11;99263.13;6318494;28;20336;-74
2023/11/30 11:59:27;;;;;;;14.68;6.57;;;;;;;1.29;96.83;99262.28;6316942;28;20036;-72
2023/11/30 12:02:33;;;;;;;16.63;7.10;;;;;;;1.39;96.53;99260.22;6318423;28;20044;-75
2023/11/30 12:05:46;;;;;;;19.08;6.80;;;;;;;1.39;96.36;99249.94;6318018;28;20711;-75
2023/11/30 12:08:47;;;;;;;14.48;7.95;;;;;;;1.35;96.53;99258.66;6317050;28;20087;-75
2023/11/30 12:11:48;;;;;;;18.38;8.63;;;;;;;1.40;96.71;99251.59;6316791;28;20056;-75
2023/11/30 12:14:52;;;;;;;14.35;7.78;;;;;;;1.50;96.47;99252.94;6318032;28;20529;-72
2023/11/30 12:17:53;;;;;;;17.00;8.07;;;;;;;1.37;97.13;99251.72;6317502;28;20055;-73
2023/11/30 12:20:54;;;;;;;16.30;7.32;;;;;;;1.42;97.43;99247.25;6317596;28;20056;-73
2023/11/30 12:23:55;;;;;;;19.35;9.68;;;;;;;1.29;98.50;99225.47;6317731;28;20566;-76
2023/11/30 12:26:56;;;;;;;22.85;10.93;;;;;;;1.25;97.97;99222.16;6317709;28;20044;-76
2023/11/30 12:29:59;;;;;;;18.80;9.45;;;;;;;1.35;98.86;99218.34;6317366;28;20177;-73
2023/11/30 12:33:00;;;;;;;17.75;8.77;;;;;;;1.35;98.59;99217.53;6317281;28;20445;-73
2023/11/30 12:36:01;;;;;;;18.50;8.02;;;;;;;1.37;99.00;99205.47;6317277;28;20052;-73
2023/11/30 12:39:03;;;;;;;28.90;10.63;;;;;;;1.35;99.22;99202.94;6316450;28;20063;-76
2023/11/30 12:42:04;;;;;;;14.17;5.47;;;;;;;1.24;99.21;99201.69;6316225;28;20071;-73
2023/11/30 12:45:05;;;;;;;21.88;10.40;;;;;;;1.43;99.02;99196.69;6317156;28;20048;-73
2023/11/30 12:48:06;;;;;;;27.92;8.75;;;;;;;1.41;98.87;99192.44;6317013;28;20048;-74
2023/11/30 12:51:07;;;;;;;33.10;13.02;;;;;;;1.53;98.68;99205.75;6315269;28;20055;-74
2023/11/30 12:54:08;;;;;;;37.00;15.02;;;;;;;1.60;98.86;99190.00;6314875;28;20051;-76
2023/11/30 12:57:10;;;;;;;25.88;12.65;;;;;;;1.57;97.98;99197.84;6315711;28;20044;-73
2023/11/30 13:00:14;;;;;;;32.13;12.35;;;;;;;1.62;97.92;99200.22;6306091;28;20060;-76
2023/11/30 13:03:15;;;;;;;28.15;13.55;;;;;;;1.51;97.70;99205.78;6299040;28;20049;-76
2023/11/30 13:06:16;;;;;;;14.65;8.25;;;;;;;1.45;98.25;99200.03;6297454;28;20045;-73
2023/11/30 13:09:17;;;;;;;14.27;8.48;;;;;;;1.59;97.65;99197.78;6298897;28;20211;-76
2023/11/30 13:12:20;;;;;;;9.30;6.22;;;;;;;1.70;97.22;99192.22;6298401;28;20053;-73
2023/11/30 13:15:23;;;;;;;15.75;8.15;;;;;;;1.64;97.60;99201.00;6298717;28;20048;-73
2023/11/30 13:18:25;;;;;;;13.38;6.18;;;;;;;1.55;98.12;99197.06;6297169;28;20578;-73
2023/11/30 13:21:29;;;;;;;11.38;6.45;;;;;;;1.52;98.29;99202.31;6298516;28;20094;-73
2023/11/30 13:24:30;;;;;;;13.23;6.97;;;;;;;1.61;98.69;99196.84;6298453;28;20055;-74
2023/11/30 13:39:40;;;;;;;22.38;10.73;;;;;;;1.60;100.00;99176.31;6343741;27;20723;-76
2023/11/30 13:55:04;;;;;;;37.50;15.65;;;;;;;1.54;100.00;99161.94;6395252;27;20728;-76
2023/11/30 13:58:07;;;;;;;29.10;12.80;;;;;;;1.62;100.00;99159.09;6394843;27;20051;-76
2023/11/30 14:01:09;;;;;;;17.10;8.13;;;;;;;1.59;100.00;99151.50;6393836;27;20078;-78
2023/11/30 14:04:13;;;;;;;13.68;6.20;;;;;;;1.46;100.00;99147.72;6394270;27;20051;-77
2023/11/30 14:07:14;;;;;;;15.13;6.65;;;;;;;1.44;100.00;99139.22;6394596;27;20447;-77
2023/11/30 14:10:15;;;;;;;13.70;6.43;;;;;;;1.45;100.00;99139.16;6393614;27;20046;-77
2023/11/30 14:13:18;;;;;;;19.55;8.57;;;;;;;1.51;100.00;99132.97;6393470;27;20086;-77
2023/11/30 14:16:21;;;;;;;22.75;9.13;;;;;;;1.60;100.00;99130.03;6393578;27;20051;-77
2023/11/30 14:19:22;;;;;;;18.80;8.57;;;;;;;1.63;100.00;99134.19;6393257;27;20047;-77
2023/11/30 14:22:23;;;;;;;16.80;9.75;;;;;;;1.74;100.00;99127.75;6393079;27;20043;-77
2023/11/30 14:25:25;;;;;;;13.60;7.00;;;;;;;1.56;100.00;99126.72;6394257;27;20069;-77
2023/11/30 14:28:26;;;;;;;15.30;7.65;;;;;;;1.65;100.00;99120.41;6393729;27;20055;-76
2023/11/30 14:31:27;;;;;;;16.55;7.60;;;;;;;1.68;100.00;99122.84;6397728;27;20115;-76